Nashville, Tennessee
Current Conditions -  °F | °C
As of 1:53 PM on Thursday 30 Oct 2014 (Local Time) from KBNA Reporting Station
Few Clouds Few Clouds  
Wind Chill: 16°   Ceiling: Unl
Heat Index: 16°   Visibility: 10mi
Dew Point:   Wind: 5mph
Humidity: 42%   Direction: 70°ENE
Pressure: 30.09"   Gusts: NA
Location:  36.11°N, 86.68°W
Report Text: KBNA 301853Z 07004KT 10SM FEW200 16/03 A3009 RMK AO2 SLP188 T01610033
Loading
Personal Weather Stations






























Interactive Weather Map
Tropical Storm Tracking
New forecast layout! Learn more

10-Day Weather Forecast

Advertisements
Track Severe Weather on mobile